Time;durP1;ratioP1;P1;durP2;ratioP2;P2;SDS_P1;SDS_P2;PMS_P1;PMS_P2;Temp;Humidity;BMP_temperature;BMP_pressure;BME280_temperature;BME280_humidity;BME280_pressure;Samples;Min_cycle;Max_cycle;Signal;HPM_P1;HPM_P2
2024/01/24 00:00:28;;;;;;;0.80;0.60;;;;;;;-143.84;61.84;45266.16;5071699;28;20523;-60
2024/01/24 00:02:56;;;;;;;0.80;0.50;;;;;;;-143.84;61.75;45245.19;5071610;28;20457;-59
2024/01/24 00:05:25;;;;;;;0.80;0.60;;;;;;;-143.84;62.07;45250.91;5071253;28;20495;-59
2024/01/24 00:07:52;;;;;;;2.93;1.03;;;;;;;-143.84;62.12;45266.16;5070802;28;20445;-59
2024/01/24 00:10:19;;;;;;;0.90;0.80;;;;;;;-143.84;62.76;45266.16;5070761;28;20435;-59
2024/01/24 00:12:46;;;;;;;0.80;0.40;;;;;;;-143.84;62.66;45243.31;5086346;28;20465;-59
2024/01/24 00:15:13;;;;;;;0.80;0.50;;;;;;;-143.84;62.40;45243.31;5090813;28;20445;-59
2024/01/24 00:17:41;;;;;;;2.10;1.03;;;;;;;-143.84;62.37;45231.88;5091026;28;20449;-59
2024/01/24 00:20:12;;;;;;;0.80;0.40;;;;;;;-143.84;61.82;45262.34;5091358;28;20445;-59
2024/01/24 00:22:39;;;;;;;0.80;0.57;;;;;;;-143.84;61.77;45266.16;5090990;28;20453;-60
2024/01/24 00:25:07;;;;;;;0.80;0.43;;;;;;;-143.84;61.78;45239.50;5088641;28;20530;-60
2024/01/24 00:27:34;;;;;;;1.20;1.10;;;;;;;-143.84;61.74;45258.53;5070524;28;20443;-59
2024/01/24 00:30:01;;;;;;;1.03;0.90;;;;;;;-143.84;61.42;45233.78;5070812;28;20895;-60
2024/01/24 00:32:28;;;;;;;0.80;0.60;;;;;;;-143.84;60.62;45245.19;5070487;28;20459;-60
2024/01/24 00:34:55;;;;;;;0.80;0.50;;;;;;;-143.84;60.33;45231.88;5070963;28;20497;-60
2024/01/24 00:37:23;;;;;;;0.80;0.60;;;;;;;-143.84;60.81;45271.88;5070648;28;20463;-59
2024/01/24 00:39:51;;;;;;;0.80;0.50;;;;;;;-143.84;60.52;45271.88;5070573;28;20504;-59
2024/01/24 00:42:18;;;;;;;0.90;0.77;;;;;;;-143.84;60.78;45264.25;5070445;28;20505;-59
2024/01/24 00:44:50;;;;;;;2.70;1.53;;;;;;;-143.84;60.98;45273.78;5070636;28;20483;-59
2024/01/24 00:47:18;;;;;;;0.80;0.60;;;;;;;-143.84;61.07;45256.63;5070471;28;21008;-60
2024/01/24 00:49:45;;;;;;;0.80;0.60;;;;;;;-143.84;61.60;45231.88;5070469;28;20443;-59
2024/01/24 00:52:12;;;;;;;1.00;0.90;;;;;;;-143.84;62.29;45262.34;5074838;28;20451;-59
2024/01/24 00:54:39;;;;;;;0.80;0.50;;;;;;;-143.84;62.86;45260.44;5075208;28;20511;-59
2024/01/24 00:57:08;;;;;;;1.73;1.53;;;;;;;-143.84;63.50;45249.00;5070513;28;20511;-59
2024/01/24 00:59:35;;;;;;;0.80;0.50;;;;;;;-143.84;64.22;45258.53;5070164;28;20563;-59
2024/01/24 01:02:02;;;;;;;0.80;0.70;;;;;;;-143.84;64.38;45220.44;5083844;28;20449;-59
2024/01/24 01:04:29;;;;;;;0.80;0.50;;;;;;;-143.84;64.54;45262.34;5089193;28;20457;-59
2024/01/24 01:06:56;;;;;;;0.80;0.50;;;;;;;-143.84;64.54;45254.72;5088603;28;20458;-60
2024/01/24 01:09:23;;;;;;;0.80;0.70;;;;;;;-143.84;64.45;45250.91;5088671;28;20575;-60
2024/01/24 01:11:51;;;;;;;1.07;0.97;;;;;;;-143.84;64.59;45258.53;5085550;28;20491;-60
2024/01/24 01:14:19;;;;;;;4.53;1.10;;;;;;;-143.84;65.45;45237.59;5082391;28;20457;-59
2024/01/24 01:16:46;;;;;;;0.80;0.70;;;;;;;-143.84;65.87;45250.91;5075705;28;21211;-60
2024/01/24 01:19:13;;;;;;;0.80;0.40;;;;;;;-143.84;65.67;45245.19;5072572;28;20519;-60
2024/01/24 01:21:40;;;;;;;1.47;1.23;;;;;;;-143.84;66.16;45273.78;5081836;28;20455;-59
2024/01/24 01:24:09;;;;;;;0.80;0.47;;;;;;;-143.84;66.38;45266.16;5073514;28;20487;-59
2024/01/24 01:26:36;;;;;;;1.40;1.00;;;;;;;-143.84;66.82;45254.72;5078221;28;20520;-59
2024/01/24 01:29:03;;;;;;;1.43;1.33;;;;;;;-143.84;66.84;45262.34;5075608;28;20454;-59
2024/01/24 01:31:32;;;;;;;0.80;0.50;;;;;;;-143.84;67.44;45262.34;5081404;28;20950;-60
2024/01/24 01:34:00;;;;;;;0.80;0.50;;;;;;;-143.84;67.89;45264.25;5074608;28;20465;-60
2024/01/24 01:36:28;;;;;;;0.80;0.60;;;;;;;-143.84;68.01;45292.81;5072616;28;20498;-59
2024/01/24 01:38:55;;;;;;;0.80;0.53;;;;;;;-143.84;68.11;45264.25;5072898;28;20481;-60
2024/01/24 01:41:22;;;;;;;0.80;0.67;;;;;;;-143.84;68.42;45289.00;5073946;28;20454;-59
2024/01/24 01:43:49;;;;;;;1.63;1.53;;;;;;;-143.84;68.61;45245.19;5072733;28;20454;-60
2024/01/24 01:46:18;;;;;;;0.80;0.50;;;;;;;-143.84;69.03;45258.53;5069207;28;20485;-60
2024/01/24 01:48:49;;;;;;;0.80;0.50;;;;;;;-143.84;69.21;45279.47;5069326;28;20434;-60
2024/01/24 01:51:17;;;;;;;2.30;1.60;;;;;;;-143.84;69.39;45264.25;5069195;28;20792;-60
2024/01/24 01:53:45;;;;;;;1.13;0.83;;;;;;;-143.84;69.56;45264.25;5069320;28;20502;-59
2024/01/24 01:56:13;;;;;;;0.80;0.40;;;;;;;-143.84;70.15;45258.53;5069114;28;20499;-59
2024/01/24 01:58:41;;;;;;;0.90;0.60;;;;;;;-143.84;70.40;45252.81;5069206;28;20441;-59
2024/01/24 02:01:09;;;;;;;0.93;0.73;;;;;;;-143.84;70.63;45269.97;5071379;28;20448;-59
2024/01/24 02:03:38;;;;;;;0.80;0.40;;;;;;;-143.84;71.04;45273.78;5089152;28;21105;-59
2024/01/24 02:06:07;;;;;;;0.80;0.50;;;;;;;-143.84;71.85;45285.19;5078857;28;20492;-60
2024/01/24 02:08:35;;;;;;;2.13;1.00;;;;;;;-143.84;72.90;45292.81;5068984;28;20442;-59
2024/01/24 02:11:02;;;;;;;0.80;0.40;;;;;;;-143.84;73.46;45256.63;5088636;28;20491;-60
2024/01/24 02:13:30;;;;;;;0.80;0.50;;;;;;;-143.84;74.26;45269.97;5089426;28;20444;-60
2024/01/24 02:15:57;;;;;;;1.70;1.10;;;;;;;-143.84;75.41;45279.47;5089045;28;20198;-59
2024/01/24 02:18:24;;;;;;;0.80;0.70;;;;;;;-143.84;76.63;45271.88;5089171;28;20733;-59
2024/01/24 02:20:51;;;;;;;3.03;1.00;;;;;;;-143.84;76.86;45262.34;5089015;28;20198;-60
2024/01/24 02:23:23;;;;;;;0.80;0.50;;;;;;;-143.84;77.90;45250.91;5089209;28;20321;-60
2024/01/24 02:25:52;;;;;;;0.80;0.50;;;;;;;-143.84;78.35;45281.38;5088681;28;20226;-60
2024/01/24 02:28:20;;;;;;;0.80;0.50;;;;;;;-143.84;79.62;45290.91;5088316;28;20670;-60
2024/01/24 02:30:47;;;;;;;0.80;0.50;;;;;;;-143.84;79.37;45283.28;5088443;28;20193;-59
2024/01/24 02:33:14;;;;;;;0.80;0.50;;;;;;;-143.84;79.96;45258.53;5088190;28;20217;-59
2024/01/24 02:35:42;;;;;;;1.35;1.20;;;;;;;-143.84;79.84;45256.63;5088474;28;20193;-60
2024/01/24 02:38:09;;;;;;;0.80;0.50;;;;;;;-143.84;80.24;45287.09;5077402;28;20706;-60
2024/01/24 02:40:36;;;;;;;1.10;1.00;;;;;;;-143.84;80.76;45266.16;5068156;28;20252;-59
2024/01/24 02:43:05;;;;;;;0.80;0.55;;;;;;;-143.84;81.28;45279.47;5068677;28;20233;-60
2024/01/24 02:45:33;;;;;;;1.50;1.08;;;;;;;-143.84;81.83;45273.78;5068648;28;20253;-60
2024/01/24 02:48:00;;;;;;;0.80;0.50;;;;;;;-143.84;82.24;45290.91;5068575;28;20205;-59
2024/01/24 02:50:27;;;;;;;0.80;0.50;;;;;;;-143.84;82.70;45283.28;5068603;28;20233;-59
2024/01/24 02:52:54;;;;;;;0.80;0.50;;;;;;;-143.84;83.35;45298.53;5076146;28;20263;-59
2024/01/24 02:55:21;;;;;;;0.80;0.50;;;;;;;-143.84;83.52;45294.72;5088752;28;20623;-60
2024/01/24 02:57:48;;;;;;;0.80;0.65;;;;;;;-143.84;83.82;45289.00;5088528;28;20647;-60
2024/01/24 03:00:18;;;;;;;0.80;0.60;;;;;;;-143.84;84.54;45290.91;5088645;28;20198;-60
2024/01/24 03:02:45;;;;;;;0.80;0.50;;;;;;;-143.84;84.69;45289.00;5088566;28;20206;-59
2024/01/24 03:05:13;;;;;;;0.80;0.50;;;;;;;-143.84;85.40;45287.09;5085504;28;20202;-59
2024/01/24 03:07:41;;;;;;;0.80;0.50;;;;;;;-143.84;86.31;45317.56;5068766;28;20203;-59
2024/01/24 03:10:09;;;;;;;1.02;0.90;;;;;;;-143.84;86.48;45289.00;5068240;28;20720;-59
2024/01/24 03:12:37;;;;;;;0.80;0.52;;;;;;;-143.84;86.78;45311.84;5068262;28;20230;-59
2024/01/24 03:15:05;;;;;;;0.80;0.60;;;;;;;-143.84;87.08;45283.28;5068456;28;21046;-60
2024/01/24 03:17:34;;;;;;;0.80;0.50;;;;;;;-143.84;87.28;45264.25;5068571;28;20293;-59
2024/01/24 03:20:01;;;;;;;0.80;0.50;;;;;;;-143.84;87.33;45279.47;5067869;28;20245;-59
2024/01/24 03:22:28;;;;;;;0.80;0.50;;;;;;;-143.84;87.38;45279.47;5069564;28;20207;-59
2024/01/24 03:24:55;;;;;;;0.80;0.50;;;;;;;-143.84;87.58;45281.38;5071800;28;20198;-59
2024/01/24 03:27:22;;;;;;;1.88;0.98;;;;;;;-143.84;87.67;45273.78;5071608;28;20219;-60
2024/01/24 03:29:50;;;;;;;0.80;0.55;;;;;;;-143.84;87.71;45273.78;5071566;28;20587;-59
2024/01/24 03:32:18;;;;;;;0.80;0.50;;;;;;;-143.84;88.01;45315.66;5072002;28;20400;-59
2024/01/24 03:34:54;;;;;;;0.98;0.88;;;;;;;-143.84;88.02;45290.91;5071546;28;20194;-59
2024/01/24 03:37:21;;;;;;;0.95;0.80;;;;;;;-143.84;88.27;45273.78;5071620;28;20198;-59
2024/01/24 03:39:48;;;;;;;0.80;0.50;;;;;;;-143.84;88.12;45290.91;5075887;28;20252;-59
2024/01/24 03:42:16;;;;;;;0.80;0.50;;;;;;;-143.84;88.26;45306.13;5086744;28;20198;-59
2024/01/24 03:44:43;;;;;;;0.80;0.50;;;;;;;-143.84;88.61;45292.81;5091992;28;20198;-60
2024/01/24 03:47:10;;;;;;;0.80;0.50;;;;;;;-143.84;88.70;45279.47;5091855;28;20270;-59
2024/01/24 03:49:38;;;;;;;0.80;0.50;;;;;;;-143.84;88.78;45281.38;5091637;28;20263;-60
2024/01/24 03:52:07;;;;;;;0.80;0.50;;;;;;;-143.84;88.58;45290.91;5088261;28;20722;-60
2024/01/24 03:54:34;;;;;;;0.80;0.80;;;;;;;-143.84;88.63;45285.19;5072115;28;20207;-59
2024/01/24 03:57:01;;;;;;;1.08;0.98;;;;;;;-143.84;88.33;45300.44;5071942;28;20207;-60
2024/01/24 03:59:28;;;;;;;0.80;0.52;;;;;;;-143.84;88.33;45290.91;5071587;28;20194;-59
2024/01/24 04:01:55;;;;;;;0.90;0.77;;;;;;;-143.84;88.11;45290.91;5071536;28;20264;-60
2024/01/24 04:04:22;;;;;;;0.80;0.73;;;;;;;-143.84;87.89;45279.47;5081717;28;20198;-59
2024/01/24 04:06:50;;;;;;;0.80;0.52;;;;;;;-143.84;87.45;45300.44;5075039;28;20711;-60
2024/01/24 04:09:18;;;;;;;0.80;0.50;;;;;;;-143.84;87.29;45281.38;5071225;28;20199;-60
2024/01/24 04:11:46;;;;;;;0.80;0.63;;;;;;;-143.84;87.17;45308.03;5070996;28;20238;-60
2024/01/24 04:14:13;;;;;;;0.80;0.50;;;;;;;-143.84;87.03;45277.56;5071317;28;20253;-59
2024/01/24 04:16:40;;;;;;;0.80;0.50;;;;;;;-143.84;87.22;45281.38;5071146;28;20191;-60
2024/01/24 04:19:08;;;;;;;1.10;0.88;;;;;;;-143.84;86.91;45292.81;5070965;28;20295;-60
2024/01/24 04:21:41;;;;;;;0.80;0.50;;;;;;;-143.84;86.74;45266.16;5071107;28;20214;-60
2024/01/24 04:24:09;;;;;;;0.80;0.50;;;;;;;-143.84;86.68;45290.91;5070787;28;20199;-60
2024/01/24 04:26:37;;;;;;;0.80;0.50;;;;;;;-143.84;86.48;45300.44;5070483;28;20313;-59
2024/01/24 04:29:04;;;;;;;0.90;0.50;;;;;;;-143.84;86.27;45283.28;5070745;28;20213;-60
2024/01/24 04:31:32;;;;;;;1.98;1.25;;;;;;;-143.84;86.48;45264.25;5070784;28;20198;-60
2024/01/24 04:34:00;;;;;;;0.80;0.70;;;;;;;-143.84;86.92;45277.56;5070339;28;20573;-59
2024/01/24 04:36:28;;;;;;;0.82;0.82;;;;;;;-143.84;86.47;45279.47;5070765;28;20210;-60
2024/01/24 04:38:55;;;;;;;0.80;0.60;;;;;;;-143.84;86.54;45250.91;5070388;28;20203;-59
2024/01/24 04:41:22;;;;;;;0.80;0.60;;;;;;;-143.84;85.37;45266.16;5070730;28;20198;-59
2024/01/24 04:43:51;;;;;;;0.80;0.50;;;;;;;-143.84;84.92;45279.47;5070398;28;20202;-60
2024/01/24 04:46:19;;;;;;;0.80;0.73;;;;;;;-143.84;84.56;45292.81;5070198;28;20319;-60
2024/01/24 04:48:46;;;;;;;0.80;0.50;;;;;;;-143.84;84.06;45289.00;5070242;28;20657;-59
2024/01/24 04:51:13;;;;;;;0.80;0.50;;;;;;;-143.84;84.00;45296.63;5071728;28;20194;-60
2024/01/24 04:53:41;;;;;;;0.80;0.60;;;;;;;-143.84;83.98;45285.19;5073824;28;20575;-59
2024/01/24 04:56:08;;;;;;;0.80;0.50;;;;;;;-143.84;84.13;45309.94;5070178;28;20289;-59
2024/01/24 04:58:35;;;;;;;0.80;0.80;;;;;;;-143.84;84.38;45283.28;5070115;28;20221;-60
2024/01/24 05:01:03;;;;;;;0.80;0.50;;;;;;;-143.84;84.66;45281.38;5070179;28;20203;-60
2024/01/24 05:03:31;;;;;;;0.80;0.50;;;;;;;-143.84;84.79;45313.75;5070259;28;20194;-59
2024/01/24 05:05:58;;;;;;;0.80;0.60;;;;;;;-143.84;84.90;45285.19;5070159;28;20660;-59
2024/01/24 05:08:25;;;;;;;0.80;0.73;;;;;;;-143.84;85.51;45285.19;5069882;28;20207;-60
2024/01/24 05:10:52;;;;;;;0.80;0.55;;;;;;;-143.84;85.75;45269.97;5069816;28;20194;-60
2024/01/24 05:13:19;;;;;;;0.80;0.50;;;;;;;-143.84;86.02;45296.63;5070036;28;20267;-59
2024/01/24 05:15:47;;;;;;;0.80;0.50;;;;;;;-143.84;86.32;45309.94;5069734;28;20652;-59
2024/01/24 05:18:15;;;;;;;1.90;1.27;;;;;;;-143.84;86.58;45273.78;5069684;28;20198;-59
2024/01/24 05:20:42;;;;;;;0.80;0.50;;;;;;;-143.84;86.88;45309.94;5070074;28;20202;-60
2024/01/24 05:23:09;;;;;;;0.80;0.50;;;;;;;-143.84;87.31;45269.97;5069819;28;20260;-59
2024/01/24 05:25:36;;;;;;;0.80;0.70;;;;;;;-143.84;87.81;45266.16;5069698;28;20284;-59
2024/01/24 05:28:05;;;;;;;4.47;1.10;;;;;;;-143.84;87.68;45306.13;5069636;28;20295;-59
2024/01/24 05:30:32;;;;;;;0.80;0.50;;;;;;;-143.84;88.10;45300.44;5069729;28;20205;-60
2024/01/24 05:32:59;;;;;;;0.90;0.80;;;;;;;-143.84;88.06;45289.00;5069589;28;20203;-59
2024/01/24 05:35:28;;;;;;;0.80;0.50;;;;;;;-143.84;88.13;45269.97;5069692;28;20202;-59
2024/01/24 05:37:55;;;;;;;2.75;1.45;;;;;;;-143.84;88.12;45285.19;5069333;28;20202;-59
2024/01/24 05:40:22;;;;;;;0.80;0.70;;;;;;;-143.84;88.16;45290.91;5069411;28;20273;-60
2024/01/24 05:42:49;;;;;;;1.08;0.98;;;;;;;-143.84;88.00;45254.72;5069358;28;20252;-59
2024/01/24 05:45:16;;;;;;;1.30;1.20;;;;;;;-143.84;88.02;45273.78;5068702;28;20198;-59
2024/01/24 05:47:43;;;;;;;0.80;0.50;;;;;;;-143.84;88.10;45287.09;5069392;28;20231;-59
2024/01/24 05:50:12;;;;;;;0.80;0.50;;;;;;;-143.84;88.05;45298.53;5069222;28;20202;-59
2024/01/24 05:52:42;;;;;;;1.20;1.10;;;;;;;-143.84;88.09;45285.19;5077156;28;20659;-60
2024/01/24 05:55:11;;;;;;;1.45;0.75;;;;;;;-143.84;87.84;45279.47;5074179;28;20703;-59
2024/01/24 05:57:40;;;;;;;0.80;0.50;;;;;;;-143.84;87.42;45317.56;5069104;28;20234;-60
2024/01/24 06:00:09;;;;;;;2.75;2.50;;;;;;;-143.84;87.25;45277.56;5069080;28;20218;-59
2024/01/24 06:02:37;;;;;;;0.80;0.47;;;;;;;-143.84;86.89;45273.78;5076296;28;20193;-60
2024/01/24 06:05:04;;;;;;;0.80;0.60;;;;;;;-143.84;86.85;45290.91;5089042;28;20649;-59
2024/01/24 06:07:32;;;;;;;0.80;0.50;;;;;;;-143.84;86.53;45296.63;5088825;28;20667;-60
2024/01/24 06:10:01;;;;;;;0.80;0.70;;;;;;;-143.84;86.36;45287.09;5079651;28;20206;-60
2024/01/24 06:12:28;;;;;;;0.80;0.40;;;;;;;-143.84;86.41;45269.97;5068503;28;20245;-60
2024/01/24 06:14:55;;;;;;;0.80;0.65;;;;;;;-143.84;85.82;45289.00;5068571;28;20680;-59
2024/01/24 06:17:23;;;;;;;0.80;0.50;;;;;;;-143.84;85.95;45289.00;5068772;28;20586;-59
2024/01/24 06:19:51;;;;;;;0.80;0.70;;;;;;;-143.84;85.71;45287.09;5068867;28;20249;-60
2024/01/24 06:22:18;;;;;;;1.65;0.95;;;;;;;-143.84;85.66;45281.38;5069137;28;20311;-59
2024/01/24 06:24:45;;;;;;;4.50;2.40;;;;;;;-143.84;85.84;45289.00;5069050;28;20200;-60
2024/01/24 06:27:14;;;;;;;0.80;0.40;;;;;;;-143.84;85.77;45277.56;5068814;28;20312;-59
2024/01/24 06:29:41;;;;;;;0.80;0.70;;;;;;;-143.84;86.05;45281.38;5068870;28;20260;-59
2024/01/24 06:32:08;;;;;;;0.80;0.60;;;;;;;-143.84;86.34;45268.06;5068862;28;21183;-59
2024/01/24 06:34:35;;;;;;;1.10;0.77;;;;;;;-143.84;86.44;45277.56;5068878;28;20264;-59
2024/01/24 06:37:02;;;;;;;0.80;0.50;;;;;;;-143.84;85.77;45273.78;5068192;28;20199;-60
2024/01/24 06:39:30;;;;;;;0.80;0.52;;;;;;;-143.84;85.68;45285.19;5068361;28;20203;-59
2024/01/24 06:41:58;;;;;;;0.90;0.70;;;;;;;-143.84;85.14;45258.53;5077596;28;20210;-60
2024/01/24 06:44:26;;;;;;;0.80;0.50;;;;;;;-143.84;83.43;45247.09;5088578;28;20475;-59
2024/01/24 06:46:54;;;;;;;0.80;0.60;;;;;;;-143.84;82.00;45245.19;5088672;28;20593;-59
2024/01/24 06:49:21;;;;;;;0.80;0.40;;;;;;;-143.84;80.08;45289.00;5088897;28;20441;-59
2024/01/24 06:51:50;;;;;;;0.80;0.60;;;;;;;-143.84;79.99;45285.19;5088676;28;20432;-59
2024/01/24 06:54:17;;;;;;;1.67;1.43;;;;;;;-143.84;79.23;45262.34;5088754;28;20525;-60
2024/01/24 06:56:45;;;;;;;0.80;0.50;;;;;;;-143.84;78.26;45254.72;5090549;28;20932;-60
2024/01/24 06:59:12;;;;;;;0.80;0.40;;;;;;;-143.84;77.22;45235.69;5092685;28;20433;-60
2024/01/24 07:01:41;;;;;;;1.27;1.10;;;;;;;-143.84;76.74;45241.41;5092657;28;20474;-59
2024/01/24 07:04:08;;;;;;;1.00;0.90;;;;;;;-143.84;76.16;45250.91;5092749;28;20449;-60
2024/01/24 07:06:35;;;;;;;0.80;0.60;;;;;;;-143.84;76.07;45243.31;5092429;28;20940;-59
2024/01/24 07:09:02;;;;;;;2.73;0.97;;;;;;;-143.84;75.94;45254.72;5092440;28;20492;-60
2024/01/24 07:11:29;;;;;;;0.80;0.50;;;;;;;-143.84;74.51;45235.69;5092185;28;20482;-60
2024/01/24 07:13:57;;;;;;;2.70;2.07;;;;;;;-143.84;73.46;45262.34;5092522;28;20450;-60
2024/01/24 07:16:24;;;;;;;1.63;1.03;;;;;;;-143.84;72.74;45249.00;5092509;28;20442;-60
2024/01/24 07:18:52;;;;;;;2.23;0.90;;;;;;;-143.84;70.74;45237.59;5092274;28;20431;-60
2024/01/24 07:21:19;;;;;;;0.80;0.50;;;;;;;-143.84;70.41;45250.91;5092463;28;20436;-60
2024/01/24 07:23:47;;;;;;;0.80;0.60;;;;;;;-143.84;69.60;45245.19;5092282;28;20440;-59
2024/01/24 07:26:14;;;;;;;2.77;2.57;;;;;;;-143.84;69.92;45226.16;5080206;28;20505;-60
2024/01/24 07:28:41;;;;;;;0.80;0.50;;;;;;;-143.84;69.17;45229.97;5071864;28;20974;-60
2024/01/24 07:31:08;;;;;;;0.80;0.53;;;;;;;-143.84;68.04;45252.81;5071664;28;20456;-60
2024/01/24 07:33:35;;;;;;;0.80;0.60;;;;;;;-143.84;66.13;45199.50;5072125;28;20507;-60
2024/01/24 07:36:05;;;;;;;0.80;0.60;;;;;;;-143.84;63.72;45258.53;5071765;28;20433;-60
2024/01/24 07:38:32;;;;;;;0.80;0.67;;;;;;;-143.84;63.27;45228.06;5082983;28;20456;-59
2024/01/24 07:40:59;;;;;;;0.90;0.70;;;;;;;-143.84;63.56;45224.25;5091837;28;20506;-60
2024/01/24 07:43:26;;;;;;;1.37;1.17;;;;;;;-143.84;63.90;45222.34;5091778;28;20445;-60
2024/01/24 07:45:54;;;;;;;1.00;0.67;;;;;;;-143.84;64.52;45216.63;5091951;28;21298;-60
2024/01/24 07:48:21;;;;;;;0.80;0.50;;;;;;;-143.84;62.11;45228.06;5091727;28;20484;-60
2024/01/24 07:50:49;;;;;;;2.20;1.57;;;;;;;-143.84;60.55;45201.41;5091709;28;21167;-60
2024/01/24 07:53:17;;;;;;;2.60;2.40;;;;;;;-143.84;59.82;45212.84;5091813;28;20523;-60
2024/01/24 07:55:44;;;;;;;0.97;0.87;;;;;;;-143.84;59.06;45212.84;5091551;28;20521;-60
2024/01/24 07:58:12;;;;;;;1.07;0.97;;;;;;;-143.84;57.55;45226.16;5091786;28;20438;-60
2024/01/24 08:00:39;;;;;;;0.80;0.50;;;;;;;-143.84;56.38;45222.34;5091506;28;20459;-60
2024/01/24 08:03:07;;;;;;;1.00;0.90;;;;;;;-143.84;54.66;45193.78;5091482;28;20446;-60
2024/01/24 08:05:35;;;;;;;0.80;0.67;;;;;;;-143.84;54.12;45184.25;5085454;28;20559;-60
2024/01/24 08:08:03;;;;;;;1.00;0.73;;;;;;;-143.84;53.86;45197.59;5070562;28;20493;-60
2024/01/24 08:10:32;;;;;;;0.90;0.80;;;;;;;-143.84;52.92;45197.59;5071288;28;20449;-60
2024/01/24 08:13:01;;;;;;;3.43;1.67;;;;;;;-143.84;52.01;45167.13;5070939;28;20484;-60
2024/01/24 08:15:28;;;;;;;1.40;1.30;;;;;;;-143.84;51.58;45176.66;5071203;28;20816;-60
2024/01/24 08:17:55;;;;;;;1.00;0.90;;;;;;;-143.84;50.74;45167.13;5071031;28;20440;-60
2024/01/24 08:20:23;;;;;;;1.20;1.10;;;;;;;-143.84;50.16;45197.59;5071041;28;20448;-60
2024/01/24 08:22:50;;;;;;;0.80;0.50;;;;;;;-143.84;49.71;45186.16;5071073;28;20425;-60
2024/01/24 08:25:17;;;;;;;1.00;0.90;;;;;;;-143.84;48.91;45174.75;5070623;28;20445;-60
2024/01/24 08:27:46;;;;;;;1.63;1.53;;;;;;;-143.84;48.54;45163.31;5070965;28;21050;-60
2024/01/24 08:30:13;;;;;;;0.90;0.60;;;;;;;-143.84;48.13;45170.94;5070905;28;20501;-60
2024/01/24 08:32:42;;;;;;;4.27;1.63;;;;;;;-143.84;46.83;45148.09;5071023;28;20466;-60
2024/01/24 08:35:09;;;;;;;1.07;0.90;;;;;;;-143.84;45.44;45144.28;5070569;28;20531;-59
2024/01/24 08:37:36;;;;;;;2.73;1.10;;;;;;;-143.84;44.68;45157.59;5070864;28;20824;-60
2024/01/24 08:40:05;;;;;;;1.10;1.00;;;;;;;-143.84;44.36;45150.00;5070439;28;20947;-60
2024/01/24 08:42:32;;;;;;;3.97;0.80;;;;;;;-143.84;44.08;45174.75;5070329;28;20447;-59
2024/01/24 08:45:01;;;;;;;2.20;2.03;;;;;;;-143.84;43.82;45148.09;5070225;28;20449;-59
2024/01/24 08:47:28;;;;;;;2.23;1.23;;;;;;;-143.84;43.29;45140.47;5070172;28;20575;-60
2024/01/24 08:49:56;;;;;;;1.00;0.80;;;;;;;-143.84;43.25;45157.59;5070174;28;20463;-59
2024/01/24 08:52:23;;;;;;;1.33;1.20;;;;;;;-143.84;42.84;45142.38;5072714;28;20457;-59
2024/01/24 08:54:50;;;;;;;1.20;1.07;;;;;;;-143.84;42.62;45142.38;5077451;28;20449;-59
2024/01/24 08:57:18;;;;;;;2.70;2.33;;;;;;;-143.84;42.07;45169.03;5070427;28;20455;-59
2024/01/24 08:59:45;;;;;;;3.43;1.33;;;;;;;-143.84;42.05;45148.09;5070170;28;20502;-59
2024/01/24 09:02:13;;;;;;;2.50;2.30;;;;;;;-143.84;41.29;45174.75;5069956;28;20988;-59
2024/01/24 09:04:40;;;;;;;1.10;0.97;;;;;;;-143.84;41.13;45134.75;5070387;28;20437;-59
2024/01/24 09:07:08;;;;;;;6.30;1.87;;;;;;;-143.84;40.93;45159.50;5069892;28;20441;-59
2024/01/24 09:09:35;;;;;;;1.10;0.90;;;;;;;-143.84;40.57;45148.09;5069828;28;21194;-60
2024/01/24 09:12:03;;;;;;;1.00;0.90;;;;;;;-143.84;40.06;45151.91;5069759;28;20485;-60
2024/01/24 09:14:30;;;;;;;1.00;0.90;;;;;;;-143.84;40.39;45151.91;5070101;28;20938;-60
2024/01/24 09:16:57;;;;;;;1.73;1.00;;;;;;;-143.84;40.17;45144.28;5069751;28;20490;-60
2024/01/24 09:19:25;;;;;;;2.30;1.70;;;;;;;-143.84;40.51;45144.28;5069298;28;20928;-59
2024/01/24 09:21:53;;;;;;;4.40;1.77;;;;;;;-143.84;40.44;45150.00;5069769;28;20449;-59
2024/01/24 09:24:20;;;;;;;1.30;1.20;;;;;;;-143.84;40.27;45153.81;5069915;28;21193;-60
2024/01/24 09:26:47;;;;;;;0.90;0.63;;;;;;;-143.84;39.77;45129.03;5085964;28;20517;-60
2024/01/24 09:29:14;;;;;;;1.93;1.33;;;;;;;-143.84;39.70;45129.03;5090088;28;20920;-60
2024/01/24 09:31:45;;;;;;;1.00;0.90;;;;;;;-143.84;40.03;45121.44;5090237;28;20439;-60
2024/01/24 09:34:12;;;;;;;2.70;1.20;;;;;;;-143.84;39.92;45113.81;5089378;28;20456;-60
2024/01/24 09:36:41;;;;;;;1.30;0.90;;;;;;;-143.84;39.66;45146.19;5089799;28;20229;-60
2024/01/24 09:39:09;;;;;;;1.47;1.37;;;;;;;-143.84;39.41;45130.94;5070218;28;20655;-60
2024/01/24 09:41:41;;;;;;;1.50;1.20;;;;;;;-143.84;38.89;45121.44;5069426;28;20436;-60
2024/01/24 09:44:09;;;;;;;1.00;0.90;;;;;;;-143.84;38.78;45146.19;5069305;28;20526;-60
2024/01/24 09:46:37;;;;;;;1.17;1.00;;;;;;;-143.84;38.87;45127.13;5083930;28;21010;-60
2024/01/24 09:49:06;;;;;;;0.90;0.70;;;;;;;-143.84;39.13;45127.13;5089424;28;20485;-60
2024/01/24 09:51:34;;;;;;;2.03;1.93;;;;;;;-143.84;38.62;45136.66;5089272;28;21018;-60
2024/01/24 09:54:06;;;;;;;0.93;0.83;;;;;;;-143.84;38.63;45130.94;5089491;28;20499;-60
2024/01/24 09:56:35;;;;;;;3.47;0.93;;;;;;;-143.84;38.66;45127.13;5088707;28;20466;-60
2024/01/24 09:59:04;;;;;;;1.37;1.17;;;;;;;-143.84;38.75;45142.38;5089240;28;20447;-60
2024/01/24 10:01:32;;;;;;;7.70;2.03;;;;;;;-143.84;38.37;45121.44;5088737;28;20443;-60
2024/01/24 10:04:00;;;;;;;1.63;1.53;;;;;;;-143.84;38.46;45132.84;5088585;28;20817;-60
2024/01/24 10:06:28;;;;;;;0.90;0.70;;;;;;;-143.84;38.35;45125.22;5089246;28;20464;-60
2024/01/24 10:08:56;;;;;;;2.73;1.30;;;;;;;-143.84;38.97;45129.03;5088950;28;20863;-60
2024/01/24 10:11:25;;;;;;;0.90;0.80;;;;;;;-143.84;38.63;45150.00;5089158;28;20482;-60
2024/01/24 10:13:57;;;;;;;1.00;0.87;;;;;;;-143.84;38.95;45121.44;5089226;28;20497;-60
2024/01/24 10:16:24;;;;;;;0.90;0.73;;;;;;;-143.84;38.97;45134.75;5089116;28;20928;-60
2024/01/24 10:18:52;;;;;;;2.77;1.13;;;;;;;-143.84;39.22;45138.56;5088999;28;20435;-60
2024/01/24 10:21:19;;;;;;;1.00;0.90;;;;;;;-143.84;39.17;45119.53;5089049;28;20440;-60
2024/01/24 10:23:46;;;;;;;0.90;0.70;;;;;;;-143.84;39.25;45129.03;5089185;28;20428;-60
2024/01/24 10:26:13;;;;;;;1.57;0.93;;;;;;;-143.84;39.81;45134.75;5089056;28;20444;-59
2024/01/24 10:28:43;;;;;;;1.40;1.30;;;;;;;-143.84;39.80;45132.84;5088929;28;20483;-60
2024/01/24 10:31:11;;;;;;;1.00;0.70;;;;;;;-143.84;39.48;45111.91;5069171;28;20476;-60
2024/01/24 10:33:39;;;;;;;1.00;0.70;;;;;;;-143.84;39.62;45146.19;5068521;28;21003;-60
2024/01/24 10:36:10;;;;;;;1.23;1.13;;;;;;;-143.84;39.95;45125.22;5068511;28;20529;-60
2024/01/24 10:38:42;;;;;;;1.10;0.90;;;;;;;-143.84;40.22;45136.66;5068909;28;20510;-60
2024/01/24 10:41:15;;;;;;;1.07;0.97;;;;;;;-143.84;41.05;45130.94;5068488;28;20436;-60
2024/01/24 10:43:48;;;;;;;2.20;1.20;;;;;;;-143.84;41.91;45146.19;5068516;28;20441;-60
2024/01/24 10:46:16;;;;;;;1.00;0.90;;;;;;;-143.84;41.79;45129.03;5068596;28;20451;-60
2024/01/24 10:48:44;;;;;;;1.37;1.27;;;;;;;-143.84;41.81;45125.22;5068198;28;20476;-60
2024/01/24 10:51:12;;;;;;;1.37;1.27;;;;;;;-143.84;41.37;45134.75;5068818;28;20429;-60
2024/01/24 10:53:41;;;;;;;1.27;1.17;;;;;;;-143.84;41.13;45136.66;5068766;28;20516;-60
2024/01/24 10:56:09;;;;;;;0.80;0.50;;;;;;;-143.84;41.08;45148.09;5068609;28;20440;-60
2024/01/24 10:58:38;;;;;;;1.20;0.80;;;;;;;-143.84;41.25;45155.69;5068642;28;20437;-60
2024/01/24 11:01:07;;;;;;;2.27;1.50;;;;;;;-143.84;41.91;45121.44;5068312;28;20455;-60
2024/01/24 11:03:35;;;;;;;2.03;1.10;;;;;;;-143.84;42.27;45144.28;5068539;28;20441;-60
2024/01/24 11:06:05;;;;;;;1.30;1.07;;;;;;;-143.84;41.84;45148.09;5068556;28;20437;-59
2024/01/24 11:08:38;;;;;;;1.33;1.13;;;;;;;-143.84;42.10;45127.13;5068218;28;20492;-60
2024/01/24 11:11:11;;;;;;;1.10;1.00;;;;;;;-143.84;42.81;45125.22;5068554;28;21166;-60
2024/01/24 11:13:39;;;;;;;1.47;1.27;;;;;;;-143.84;42.09;45142.38;5068375;28;20436;-60
2024/01/24 11:16:29;;;;;;;1.77;0.87;;;;;;;-143.84;42.76;45146.19;5068261;28;20445;-60
2024/01/24 11:19:00;;;;;;;1.00;0.90;;;;;;;-143.84;42.84;45150.00;5068187;28;20543;-60